sensor_id;sensor_type;location;lat;lon;timestamp;P1;durP1;ratioP1;P2;durP2;ratioP2
75061;SDS011;63641;46.526;24.612;2023-02-20T00:01:28;4.32;;;4.03;;
75061;SDS011;63641;46.526;24.612;2023-02-20T00:03:56;2.63;;;2.42;;
75061;SDS011;63641;46.526;24.612;2023-02-20T00:06:22;2.38;;;2.20;;
75061;SDS011;63641;46.526;24.612;2023-02-20T00:08:49;2.47;;;2.28;;
75061;SDS011;63641;46.526;24.612;2023-02-20T00:11:16;2.75;;;2.55;;
75061;SDS011;63641;46.526;24.612;2023-02-20T00:13:44;2.50;;;2.30;;
75061;SDS011;63641;46.526;24.612;2023-02-20T00:16:11;3.35;;;3.15;;
75061;SDS011;63641;46.526;24.612;2023-02-20T00:18:39;2.85;;;2.65;;
75061;SDS011;63641;46.526;24.612;2023-02-20T00:21:06;2.38;;;2.22;;
75061;SDS011;63641;46.526;24.612;2023-02-20T00:23:33;2.70;;;2.50;;
75061;SDS011;63641;46.526;24.612;2023-02-20T00:26:00;3.08;;;2.78;;
75061;SDS011;63641;46.526;24.612;2023-02-20T00:28:27;3.00;;;2.80;;
75061;SDS011;63641;46.526;24.612;2023-02-20T00:30:55;2.80;;;2.60;;
75061;SDS011;63641;46.526;24.612;2023-02-20T00:33:22;2.30;;;2.20;;
75061;SDS011;63641;46.526;24.612;2023-02-20T00:35:48;2.45;;;2.35;;
75061;SDS011;63641;46.526;24.612;2023-02-20T00:38:15;2.50;;;2.40;;
75061;SDS011;63641;46.526;24.612;2023-02-20T00:40:42;2.75;;;2.65;;
75061;SDS011;63641;46.526;24.612;2023-02-20T00:43:08;2.25;;;2.15;;
75061;SDS011;63641;46.526;24.612;2023-02-20T00:45:35;2.25;;;2.15;;
75061;SDS011;63641;46.526;24.612;2023-02-20T00:48:02;4.28;;;3.97;;
75061;SDS011;63641;46.526;24.612;2023-02-20T00:50:29;3.38;;;3.17;;
75061;SDS011;63641;46.526;24.612;2023-02-20T00:52:56;2.78;;;2.58;;
75061;SDS011;63641;46.526;24.612;2023-02-20T00:55:23;3.47;;;3.17;;
75061;SDS011;63641;46.526;24.612;2023-02-20T00:57:49;3.50;;;3.20;;
75061;SDS011;63641;46.526;24.612;2023-02-20T01:00:18;3.22;;;2.95;;
75061;SDS011;63641;46.526;24.612;2023-02-20T01:02:47;4.03;;;3.70;;
75061;SDS011;63641;46.526;24.612;2023-02-20T01:05:14;3.33;;;3.03;;
75061;SDS011;63641;46.526;24.612;2023-02-20T01:07:41;3.78;;;3.47;;
75061;SDS011;63641;46.526;24.612;2023-02-20T01:10:08;4.35;;;4.00;;
75061;SDS011;63641;46.526;24.612;2023-02-20T01:12:36;4.53;;;4.13;;
75061;SDS011;63641;46.526;24.612;2023-02-20T01:15:03;4.05;;;3.50;;
75061;SDS011;63641;46.526;24.612;2023-02-20T01:17:31;6.55;;;5.22;;
75061;SDS011;63641;46.526;24.612;2023-02-20T01:19:58;5.10;;;3.97;;
75061;SDS011;63641;46.526;24.612;2023-02-20T01:22:25;3.78;;;3.47;;
75061;SDS011;63641;46.526;24.612;2023-02-20T01:24:52;4.72;;;4.32;;
75061;SDS011;63641;46.526;24.612;2023-02-20T01:27:18;4.68;;;4.03;;
75061;SDS011;63641;46.526;24.612;2023-02-20T01:29:45;4.82;;;4.13;;
75061;SDS011;63641;46.526;24.612;2023-02-20T01:32:12;4.68;;;4.25;;
75061;SDS011;63641;46.526;24.612;2023-02-20T01:34:39;5.82;;;5.25;;
75061;SDS011;63641;46.526;24.612;2023-02-20T01:37:06;4.72;;;4.32;;
75061;SDS011;63641;46.526;24.612;2023-02-20T01:39:32;4.20;;;3.80;;
75061;SDS011;63641;46.526;24.612;2023-02-20T01:42:00;5.30;;;4.15;;
75061;SDS011;63641;46.526;24.612;2023-02-20T01:44:30;5.40;;;4.15;;
75061;SDS011;63641;46.526;24.612;2023-02-20T01:47:04;6.43;;;4.80;;
75061;SDS011;63641;46.526;24.612;2023-02-20T01:49:34;5.00;;;4.55;;
75061;SDS011;63641;46.526;24.612;2023-02-20T01:54:54;5.05;;;4.18;;
75061;SDS011;63641;46.526;24.612;2023-02-20T01:57:23;5.00;;;4.17;;
75061;SDS011;63641;46.526;24.612;2023-02-20T01:59:54;6.43;;;4.65;;
75061;SDS011;63641;46.526;24.612;2023-02-20T02:02:29;6.00;;;5.18;;
75061;SDS011;63641;46.526;24.612;2023-02-20T02:04:58;5.18;;;4.70;;
75061;SDS011;63641;46.526;24.612;2023-02-20T02:07:27;5.13;;;4.63;;
75061;SDS011;63641;46.526;24.612;2023-02-20T02:09:57;6.65;;;4.68;;
75061;SDS011;63641;46.526;24.612;2023-02-20T02:12:27;5.00;;;4.50;;
75061;SDS011;63641;46.526;24.612;2023-02-20T02:14:54;5.35;;;4.78;;
75061;SDS011;63641;46.526;24.612;2023-02-20T02:17:24;6.45;;;5.10;;
75061;SDS011;63641;46.526;24.612;2023-02-20T02:42:28;4.97;;;4.57;;
75061;SDS011;63641;46.526;24.612;2023-02-20T02:47:43;8.18;;;6.32;;
75061;SDS011;63641;46.526;24.612;2023-02-20T02:50:23;4.60;;;4.20;;
75061;SDS011;63641;46.526;24.612;2023-02-20T02:52:54;5.10;;;4.05;;
75061;SDS011;63641;46.526;24.612;2023-02-20T02:55:27;4.85;;;4.45;;
75061;SDS011;63641;46.526;24.612;2023-02-20T02:57:55;4.50;;;3.90;;
75061;SDS011;63641;46.526;24.612;2023-02-20T03:00:31;5.20;;;4.70;;
75061;SDS011;63641;46.526;24.612;2023-02-20T03:08:27;4.28;;;3.88;;
75061;SDS011;63641;46.526;24.612;2023-02-20T03:11:09;6.47;;;4.88;;
75061;SDS011;63641;46.526;24.612;2023-02-20T03:13:41;5.03;;;4.50;;
75061;SDS011;63641;46.526;24.612;2023-02-20T03:16:34;5.03;;;4.13;;
75061;SDS011;63641;46.526;24.612;2023-02-20T03:19:28;6.25;;;4.72;;
75061;SDS011;63641;46.526;24.612;2023-02-20T03:22:03;5.60;;;4.70;;
75061;SDS011;63641;46.526;24.612;2023-02-20T03:24:33;5.70;;;4.63;;
75061;SDS011;63641;46.526;24.612;2023-02-20T03:27:21;5.00;;;4.50;;
75061;SDS011;63641;46.526;24.612;2023-02-20T03:29:50;5.22;;;4.28;;
75061;SDS011;63641;46.526;24.612;2023-02-20T03:32:21;4.63;;;4.13;;
75061;SDS011;63641;46.526;24.612;2023-02-20T03:35:11;4.43;;;4.03;;
75061;SDS011;63641;46.526;24.612;2023-02-20T03:37:59;5.70;;;4.43;;
75061;SDS011;63641;46.526;24.612;2023-02-20T03:40:48;6.25;;;4.15;;
75061;SDS011;63641;46.526;24.612;2023-02-20T03:43:34;5.88;;;5.38;;
75061;SDS011;63641;46.526;24.612;2023-02-20T03:46:03;4.75;;;4.35;;
75061;SDS011;63641;46.526;24.612;2023-02-20T03:49:20;4.80;;;3.95;;
75061;SDS011;63641;46.526;24.612;2023-02-20T03:51:33;5.55;;;4.70;;
75061;SDS011;63641;46.526;24.612;2023-02-20T03:54:00;5.05;;;4.55;;
75061;SDS011;63641;46.526;24.612;2023-02-20T03:56:32;5.43;;;4.93;;
75061;SDS011;63641;46.526;24.612;2023-02-20T03:59:25;6.45;;;4.70;;
75061;SDS011;63641;46.526;24.612;2023-02-20T04:01:56;5.75;;;4.82;;
75061;SDS011;63641;46.526;24.612;2023-02-20T04:04:37;5.13;;;4.18;;
75061;SDS011;63641;46.526;24.612;2023-02-20T04:07:11;6.53;;;4.75;;
75061;SDS011;63641;46.526;24.612;2023-02-20T04:09:44;5.40;;;4.90;;
75061;SDS011;63641;46.526;24.612;2023-02-20T04:12:16;8.05;;;5.10;;
75061;SDS011;63641;46.526;24.612;2023-02-20T04:14:48;8.27;;;4.65;;
75061;SDS011;63641;46.526;24.612;2023-02-20T04:17:19;5.43;;;4.22;;
75061;SDS011;63641;46.526;24.612;2023-02-20T04:19:50;6.20;;;4.72;;
75061;SDS011;63641;46.526;24.612;2023-02-20T04:22:27;6.03;;;4.57;;
75061;SDS011;63641;46.526;24.612;2023-02-20T04:24:58;4.90;;;4.50;;
75061;SDS011;63641;46.526;24.612;2023-02-20T04:27:28;5.78;;;5.18;;
75061;SDS011;63641;46.526;24.612;2023-02-20T04:29:56;4.90;;;4.50;;
75061;SDS011;63641;46.526;24.612;2023-02-20T04:32:23;5.22;;;4.30;;
75061;SDS011;63641;46.526;24.612;2023-02-20T04:34:50;6.28;;;4.68;;
75061;SDS011;63641;46.526;24.612;2023-02-20T04:37:17;6.18;;;4.18;;
75061;SDS011;63641;46.526;24.612;2023-02-20T04:39:45;7.78;;;5.65;;
75061;SDS011;63641;46.526;24.612;2023-02-20T04:42:12;6.85;;;5.60;;
75061;SDS011;63641;46.526;24.612;2023-02-20T04:44:39;7.65;;;5.50;;
75061;SDS011;63641;46.526;24.612;2023-02-20T04:47:15;5.30;;;4.32;;
75061;SDS011;63641;46.526;24.612;2023-02-20T04:49:43;6.65;;;5.68;;
75061;SDS011;63641;46.526;24.612;2023-02-20T04:52:10;6.80;;;5.15;;
75061;SDS011;63641;46.526;24.612;2023-02-20T04:54:37;4.70;;;4.28;;
75061;SDS011;63641;46.526;24.612;2023-02-20T04:57:03;7.18;;;5.18;;
75061;SDS011;63641;46.526;24.612;2023-02-20T04:59:30;7.65;;;5.60;;
75061;SDS011;63641;46.526;24.612;2023-02-20T05:01:57;6.13;;;5.00;;
75061;SDS011;63641;46.526;24.612;2023-02-20T05:04:26;8.52;;;5.50;;
75061;SDS011;63641;46.526;24.612;2023-02-20T05:06:54;5.82;;;4.85;;
75061;SDS011;63641;46.526;24.612;2023-02-20T05:09:21;5.72;;;4.80;;
75061;SDS011;63641;46.526;24.612;2023-02-20T05:11:48;9.35;;;5.65;;
75061;SDS011;63641;46.526;24.612;2023-02-20T05:14:15;6.28;;;5.53;;
75061;SDS011;63641;46.526;24.612;2023-02-20T05:16:43;8.00;;;5.13;;
75061;SDS011;63641;46.526;24.612;2023-02-20T05:19:11;7.38;;;5.68;;
75061;SDS011;63641;46.526;24.612;2023-02-20T05:21:42;6.45;;;5.78;;
75061;SDS011;63641;46.526;24.612;2023-02-20T05:24:28;8.18;;;5.38;;
75061;SDS011;63641;46.526;24.612;2023-02-20T05:26:57;7.35;;;5.95;;
75061;SDS011;63641;46.526;24.612;2023-02-20T05:29:24;5.93;;;4.70;;
75061;SDS011;63641;46.526;24.612;2023-02-20T05:31:51;6.30;;;5.70;;
75061;SDS011;63641;46.526;24.612;2023-02-20T05:34:18;7.55;;;5.55;;
75061;SDS011;63641;46.526;24.612;2023-02-20T05:36:46;6.18;;;5.35;;
75061;SDS011;63641;46.526;24.612;2023-02-20T05:39:13;6.50;;;4.90;;
75061;SDS011;63641;46.526;24.612;2023-02-20T05:41:40;7.85;;;5.47;;
75061;SDS011;63641;46.526;24.612;2023-02-20T05:44:07;7.60;;;5.70;;
75061;SDS011;63641;46.526;24.612;2023-02-20T05:46:37;7.03;;;5.10;;
75061;SDS011;63641;46.526;24.612;2023-02-20T05:49:06;6.88;;;5.50;;
75061;SDS011;63641;46.526;24.612;2023-02-20T05:51:34;8.95;;;6.07;;
75061;SDS011;63641;46.526;24.612;2023-02-20T05:54:01;11.20;;;6.82;;
75061;SDS011;63641;46.526;24.612;2023-02-20T05:56:28;8.70;;;5.70;;
75061;SDS011;63641;46.526;24.612;2023-02-20T05:58:55;8.20;;;5.75;;
75061;SDS011;63641;46.526;24.612;2023-02-20T06:01:23;7.53;;;5.32;;
75061;SDS011;63641;46.526;24.612;2023-02-20T06:03:52;11.55;;;5.32;;
75061;SDS011;63641;46.526;24.612;2023-02-20T06:06:19;8.43;;;4.82;;
75061;SDS011;63641;46.526;24.612;2023-02-20T06:08:47;7.72;;;6.07;;
75061;SDS011;63641;46.526;24.612;2023-02-20T06:11:14;7.07;;;5.43;;
75061;SDS011;63641;46.526;24.612;2023-02-20T06:13:42;9.00;;;5.47;;
75061;SDS011;63641;46.526;24.612;2023-02-20T06:16:10;7.88;;;5.97;;
75061;SDS011;63641;46.526;24.612;2023-02-20T06:18:39;6.30;;;5.05;;
75061;SDS011;63641;46.526;24.612;2023-02-20T06:21:09;8.10;;;5.38;;
75061;SDS011;63641;46.526;24.612;2023-02-20T06:23:36;7.72;;;5.45;;
75061;SDS011;63641;46.526;24.612;2023-02-20T06:26:04;6.63;;;5.40;;
75061;SDS011;63641;46.526;24.612;2023-02-20T06:28:32;6.40;;;5.22;;
75061;SDS011;63641;46.526;24.612;2023-02-20T06:30:59;5.70;;;5.10;;
75061;SDS011;63641;46.526;24.612;2023-02-20T06:33:27;7.07;;;4.78;;
75061;SDS011;63641;46.526;24.612;2023-02-20T06:35:54;7.13;;;5.80;;
75061;SDS011;63641;46.526;24.612;2023-02-20T06:38:21;9.15;;;6.43;;
75061;SDS011;63641;46.526;24.612;2023-02-20T06:40:48;7.88;;;7.07;;
75061;SDS011;63641;46.526;24.612;2023-02-20T06:43:15;9.07;;;5.82;;
75061;SDS011;63641;46.526;24.612;2023-02-20T06:45:42;9.55;;;5.90;;
75061;SDS011;63641;46.526;24.612;2023-02-20T06:48:09;7.60;;;5.38;;
75061;SDS011;63641;46.526;24.612;2023-02-20T06:50:37;6.60;;;5.60;;
75061;SDS011;63641;46.526;24.612;2023-02-20T06:53:04;6.22;;;5.00;;
75061;SDS011;63641;46.526;24.612;2023-02-20T06:55:32;7.60;;;5.32;;
75061;SDS011;63641;46.526;24.612;2023-02-20T06:57:59;9.88;;;5.40;;
75061;SDS011;63641;46.526;24.612;2023-02-20T07:00:26;12.10;;;5.93;;
75061;SDS011;63641;46.526;24.612;2023-02-20T07:02:55;6.22;;;5.20;;
75061;SDS011;63641;46.526;24.612;2023-02-20T07:05:22;7.47;;;5.38;;
75061;SDS011;63641;46.526;24.612;2023-02-20T07:07:49;7.63;;;5.95;;
75061;SDS011;63641;46.526;24.612;2023-02-20T07:10:16;7.50;;;5.55;;
75061;SDS011;63641;46.526;24.612;2023-02-20T07:12:43;7.47;;;5.35;;
75061;SDS011;63641;46.526;24.612;2023-02-20T07:15:10;12.65;;;6.40;;
75061;SDS011;63641;46.526;24.612;2023-02-20T07:17:38;8.30;;;5.78;;
75061;SDS011;63641;46.526;24.612;2023-02-20T07:20:06;8.35;;;6.10;;
75061;SDS011;63641;46.526;24.612;2023-02-20T07:22:33;7.30;;;5.53;;
75061;SDS011;63641;46.526;24.612;2023-02-20T07:25:00;7.35;;;5.57;;
75061;SDS011;63641;46.526;24.612;2023-02-20T07:27:27;7.68;;;5.30;;
75061;SDS011;63641;46.526;24.612;2023-02-20T07:29:53;7.97;;;5.18;;
75061;SDS011;63641;46.526;24.612;2023-02-20T07:32:21;8.48;;;5.53;;
75061;SDS011;63641;46.526;24.612;2023-02-20T07:34:48;6.65;;;5.32;;
75061;SDS011;63641;46.526;24.612;2023-02-20T07:37:29;7.75;;;5.03;;
75061;SDS011;63641;46.526;24.612;2023-02-20T07:39:57;5.90;;;5.22;;
75061;SDS011;63641;46.526;24.612;2023-02-20T07:42:23;8.55;;;5.47;;
75061;SDS011;63641;46.526;24.612;2023-02-20T07:44:50;7.50;;;5.32;;
75061;SDS011;63641;46.526;24.612;2023-02-20T07:47:17;8.90;;;5.28;;
75061;SDS011;63641;46.526;24.612;2023-02-20T07:49:44;7.90;;;4.90;;
75061;SDS011;63641;46.526;24.612;2023-02-20T07:52:10;5.07;;;4.43;;
75061;SDS011;63641;46.526;24.612;2023-02-20T07:54:38;8.48;;;4.57;;
75061;SDS011;63641;46.526;24.612;2023-02-20T07:57:04;7.30;;;5.10;;
75061;SDS011;63641;46.526;24.612;2023-02-20T07:59:31;8.57;;;5.38;;
75061;SDS011;63641;46.526;24.612;2023-02-20T08:01:58;6.18;;;5.13;;
75061;SDS011;63641;46.526;24.612;2023-02-20T08:04:24;7.30;;;5.20;;
75061;SDS011;63641;46.526;24.612;2023-02-20T08:06:52;7.60;;;5.28;;
75061;SDS011;63641;46.526;24.612;2023-02-20T08:09:19;7.85;;;4.63;;
75061;SDS011;63641;46.526;24.612;2023-02-20T08:11:46;7.97;;;5.05;;
75061;SDS011;63641;46.526;24.612;2023-02-20T08:14:13;5.85;;;4.20;;
75061;SDS011;63641;46.526;24.612;2023-02-20T08:16:41;7.85;;;4.60;;
75061;SDS011;63641;46.526;24.612;2023-02-20T08:19:08;5.10;;;4.55;;
75061;SDS011;63641;46.526;24.612;2023-02-20T08:21:35;6.15;;;4.55;;
75061;SDS011;63641;46.526;24.612;2023-02-20T08:24:01;8.43;;;5.35;;
75061;SDS011;63641;46.526;24.612;2023-02-20T08:26:28;7.47;;;4.20;;
75061;SDS011;63641;46.526;24.612;2023-02-20T08:28:55;5.72;;;4.43;;
75061;SDS011;63641;46.526;24.612;2023-02-20T08:31:22;6.30;;;4.97;;
75061;SDS011;63641;46.526;24.612;2023-02-20T08:33:57;6.72;;;4.80;;
75061;SDS011;63641;46.526;24.612;2023-02-20T08:36:24;6.47;;;3.90;;
75061;SDS011;63641;46.526;24.612;2023-02-20T08:38:51;7.00;;;3.95;;
75061;SDS011;63641;46.526;24.612;2023-02-20T08:41:18;7.13;;;4.25;;
75061;SDS011;63641;46.526;24.612;2023-02-20T08:43:45;5.10;;;3.90;;
75061;SDS011;63641;46.526;24.612;2023-02-20T08:46:12;5.95;;;4.25;;
75061;SDS011;63641;46.526;24.612;2023-02-20T08:48:39;7.47;;;4.57;;
75061;SDS011;63641;46.526;24.612;2023-02-20T08:51:07;5.28;;;4.00;;
75061;SDS011;63641;46.526;24.612;2023-02-20T08:53:33;8.45;;;4.55;;
75061;SDS011;63641;46.526;24.612;2023-02-20T08:56:00;6.28;;;3.95;;
75061;SDS011;63641;46.526;24.612;2023-02-20T08:58:27;5.35;;;4.63;;
75061;SDS011;63641;46.526;24.612;2023-02-20T09:00:54;5.85;;;5.03;;
75061;SDS011;63641;46.526;24.612;2023-02-20T09:03:21;4.43;;;3.47;;
75061;SDS011;63641;46.526;24.612;2023-02-20T09:05:48;7.38;;;4.00;;
75061;SDS011;63641;46.526;24.612;2023-02-20T09:08:15;6.07;;;3.90;;
75061;SDS011;63641;46.526;24.612;2023-02-20T09:10:42;5.10;;;4.22;;
75061;SDS011;63641;46.526;24.612;2023-02-20T09:13:09;6.25;;;3.55;;
75061;SDS011;63641;46.526;24.612;2023-02-20T09:15:36;4.53;;;4.05;;
75061;SDS011;63641;46.526;24.612;2023-02-20T09:18:07;6.65;;;4.07;;
75061;SDS011;63641;46.526;24.612;2023-02-20T09:20:37;4.75;;;3.90;;
75061;SDS011;63641;46.526;24.612;2023-02-20T09:23:04;8.05;;;3.97;;
75061;SDS011;63641;46.526;24.612;2023-02-20T09:25:31;5.93;;;3.63;;
75061;SDS011;63641;46.526;24.612;2023-02-20T09:27:58;9.40;;;4.03;;
75061;SDS011;63641;46.526;24.612;2023-02-20T09:30:25;4.38;;;3.58;;
75061;SDS011;63641;46.526;24.612;2023-02-20T09:32:52;5.63;;;3.47;;
75061;SDS011;63641;46.526;24.612;2023-02-20T09:35:21;7.55;;;3.22;;
75061;SDS011;63641;46.526;24.612;2023-02-20T09:37:51;3.97;;;3.38;;
75061;SDS011;63641;46.526;24.612;2023-02-20T09:40:22;5.15;;;3.92;;
75061;SDS011;63641;46.526;24.612;2023-02-20T09:45:27;4.28;;;3.40;;
75061;SDS011;63641;46.526;24.612;2023-02-20T09:50:29;3.90;;;3.03;;
75061;SDS011;63641;46.526;24.612;2023-02-20T09:53:18;3.40;;;3.10;;
75061;SDS011;63641;46.526;24.612;2023-02-20T09:55:51;6.88;;;2.70;;
75061;SDS011;63641;46.526;24.612;2023-02-20T10:01:04;3.75;;;2.70;;
75061;SDS011;63641;46.526;24.612;2023-02-20T10:03:38;3.70;;;3.30;;
75061;SDS011;63641;46.526;24.612;2023-02-20T10:06:14;4.28;;;2.90;;
75061;SDS011;63641;46.526;24.612;2023-02-20T10:08:43;5.13;;;3.80;;
75061;SDS011;63641;46.526;24.612;2023-02-20T10:11:15;4.72;;;2.88;;
75061;SDS011;63641;46.526;24.612;2023-02-20T10:13:57;3.67;;;3.00;;
75061;SDS011;63641;46.526;24.612;2023-02-20T10:22:32;4.18;;;3.25;;
75061;SDS011;63641;46.526;24.612;2023-02-20T10:25:06;4.88;;;2.72;;
75061;SDS011;63641;46.526;24.612;2023-02-20T10:35:46;5.75;;;2.88;;
75061;SDS011;63641;46.526;24.612;2023-02-20T10:38:35;3.97;;;3.10;;
75061;SDS011;63641;46.526;24.612;2023-02-20T10:43:43;4.63;;;2.63;;
75061;SDS011;63641;46.526;24.612;2023-02-20T10:49:26;4.05;;;3.03;;
75061;SDS011;63641;46.526;24.612;2023-02-20T10:51:58;3.50;;;2.80;;
75061;SDS011;63641;46.526;24.612;2023-02-20T10:57:41;4.10;;;2.50;;
75061;SDS011;63641;46.526;24.612;2023-02-20T11:00:19;5.47;;;2.88;;
75061;SDS011;63641;46.526;24.612;2023-02-20T11:03:01;3.47;;;2.63;;
75061;SDS011;63641;46.526;24.612;2023-02-20T11:08:08;3.60;;;2.80;;
75061;SDS011;63641;46.526;24.612;2023-02-20T11:10:35;3.97;;;2.63;;
75061;SDS011;63641;46.526;24.612;2023-02-20T11:13:04;3.20;;;2.90;;
75061;SDS011;63641;46.526;24.612;2023-02-20T11:15:39;4.18;;;2.95;;
75061;SDS011;63641;46.526;24.612;2023-02-20T11:21:00;3.47;;;2.50;;
75061;SDS011;63641;46.526;24.612;2023-02-20T11:26:18;4.35;;;2.78;;
75061;SDS011;63641;46.526;24.612;2023-02-20T11:29:02;3.90;;;2.58;;
75061;SDS011;63641;46.526;24.612;2023-02-20T11:31:33;3.72;;;2.72;;
75061;SDS011;63641;46.526;24.612;2023-02-20T11:34:00;3.00;;;2.70;;
75061;SDS011;63641;46.526;24.612;2023-02-20T11:36:41;2.75;;;2.40;;
75061;SDS011;63641;46.526;24.612;2023-02-20T11:39:16;3.22;;;2.92;;
75061;SDS011;63641;46.526;24.612;2023-02-20T11:41:47;3.55;;;2.50;;
75061;SDS011;63641;46.526;24.612;2023-02-20T11:44:19;3.08;;;2.35;;
75061;SDS011;63641;46.526;24.612;2023-02-20T11:47:07;3.80;;;2.45;;
75061;SDS011;63641;46.526;24.612;2023-02-20T11:49:36;6.15;;;2.70;;
75061;SDS011;63641;46.526;24.612;2023-02-20T11:52:08;3.60;;;2.75;;
75061;SDS011;63641;46.526;24.612;2023-02-20T11:54:42;4.93;;;2.40;;
75061;SDS011;63641;46.526;24.612;2023-02-20T11:59:50;3.10;;;2.65;;
75061;SDS011;63641;46.526;24.612;2023-02-20T12:05:08;2.88;;;2.40;;
75061;SDS011;63641;46.526;24.612;2023-02-20T12:07:44;4.45;;;2.83;;
75061;SDS011;63641;46.526;24.612;2023-02-20T12:12:59;3.95;;;2.50;;
75061;SDS011;63641;46.526;24.612;2023-02-20T12:15:28;4.75;;;2.88;;
75061;SDS011;63641;46.526;24.612;2023-02-20T12:23:54;4.38;;;2.95;;
75061;SDS011;63641;46.526;24.612;2023-02-20T12:29:58;6.40;;;2.72;;
75061;SDS011;63641;46.526;24.612;2023-02-20T12:32:16;4.20;;;2.63;;
75061;SDS011;63641;46.526;24.612;2023-02-20T12:35:13;4.60;;;2.80;;
75061;SDS011;63641;46.526;24.612;2023-02-20T12:54:54;3.17;;;2.83;;
75061;SDS011;63641;46.526;24.612;2023-02-20T12:57:44;3.00;;;2.80;;
75061;SDS011;63641;46.526;24.612;2023-02-20T13:00:33;3.83;;;2.88;;
75061;SDS011;63641;46.526;24.612;2023-02-20T13:03:16;3.63;;;3.03;;
75061;SDS011;63641;46.526;24.612;2023-02-20T13:05:47;3.63;;;2.97;;
75061;SDS011;63641;46.526;24.612;2023-02-20T13:10:56;5.43;;;3.38;;
75061;SDS011;63641;46.526;24.612;2023-02-20T13:13:26;3.88;;;2.80;;
75061;SDS011;63641;46.526;24.612;2023-02-20T13:16:18;3.47;;;3.00;;
75061;SDS011;63641;46.526;24.612;2023-02-20T13:19:53;3.70;;;3.40;;
75061;SDS011;63641;46.526;24.612;2023-02-20T13:22:06;3.63;;;3.28;;
75061;SDS011;63641;46.526;24.612;2023-02-20T13:24:37;4.20;;;2.80;;
75061;SDS011;63641;46.526;24.612;2023-02-20T13:27:08;4.80;;;3.20;;
75061;SDS011;63641;46.526;24.612;2023-02-20T13:29:37;3.63;;;2.88;;
75061;SDS011;63641;46.526;24.612;2023-02-20T13:32:31;3.72;;;2.80;;
75061;SDS011;63641;46.526;24.612;2023-02-20T13:36:02;4.57;;;3.38;;
75061;SDS011;63641;46.526;24.612;2023-02-20T13:38:12;3.08;;;2.88;;
75061;SDS011;63641;46.526;24.612;2023-02-20T13:40:42;3.35;;;2.20;;
75061;SDS011;63641;46.526;24.612;2023-02-20T13:45:44;2.90;;;2.70;;
75061;SDS011;63641;46.526;24.612;2023-02-20T13:48:18;2.40;;;2.20;;
75061;SDS011;63641;46.526;24.612;2023-02-20T13:56:28;5.13;;;3.30;;
75061;SDS011;63641;46.526;24.612;2023-02-20T13:59:13;3.60;;;2.72;;
75061;SDS011;63641;46.526;24.612;2023-02-20T14:04:30;3.47;;;2.63;;
75061;SDS011;63641;46.526;24.612;2023-02-20T14:06:58;3.97;;;3.38;;
75061;SDS011;63641;46.526;24.612;2023-02-20T14:09:26;3.78;;;2.78;;
75061;SDS011;63641;46.526;24.612;2023-02-20T14:12:02;3.10;;;2.78;;
75061;SDS011;63641;46.526;24.612;2023-02-20T14:14:35;5.20;;;3.67;;
75061;SDS011;63641;46.526;24.612;2023-02-20T14:17:14;5.53;;;3.30;;
75061;SDS011;63641;46.526;24.612;2023-02-20T14:19:48;4.15;;;2.70;;
75061;SDS011;63641;46.526;24.612;2023-02-20T14:22:38;3.72;;;2.53;;
75061;SDS011;63641;46.526;24.612;2023-02-20T14:27:38;5.05;;;3.22;;
75061;SDS011;63641;46.526;24.612;2023-02-20T14:30:07;3.50;;;2.72;;
75061;SDS011;63641;46.526;24.612;2023-02-20T14:32:34;3.97;;;3.10;;
75061;SDS011;63641;46.526;24.612;2023-02-20T14:38:14;6.40;;;4.65;;
75061;SDS011;63641;46.526;24.612;2023-02-20T14:40:43;3.83;;;2.97;;
75061;SDS011;63641;46.526;24.612;2023-02-20T14:43:17;4.05;;;3.40;;
75061;SDS011;63641;46.526;24.612;2023-02-20T14:45:46;4.03;;;3.50;;
75061;SDS011;63641;46.526;24.612;2023-02-20T14:48:34;4.17;;;3.77;;
75061;SDS011;63641;46.526;24.612;2023-02-20T14:51:16;4.00;;;2.92;;
75061;SDS011;63641;46.526;24.612;2023-02-20T14:53:58;3.35;;;3.05;;
75061;SDS011;63641;46.526;24.612;2023-02-20T14:56:40;3.53;;;3.10;;
75061;SDS011;63641;46.526;24.612;2023-02-20T14:59:42;3.38;;;2.90;;
75061;SDS011;63641;46.526;24.612;2023-02-20T15:02:26;3.38;;;3.05;;
75061;SDS011;63641;46.526;24.612;2023-02-20T15:07:26;6.35;;;4.65;;
75061;SDS011;63641;46.526;24.612;2023-02-20T15:09:55;5.50;;;4.40;;
75061;SDS011;63641;46.526;24.612;2023-02-20T15:12:26;4.70;;;3.75;;
75061;SDS011;63641;46.526;24.612;2023-02-20T15:15:07;5.40;;;3.55;;
75061;SDS011;63641;46.526;24.612;2023-02-20T15:17:38;4.13;;;3.40;;
75061;SDS011;63641;46.526;24.612;2023-02-20T15:23:20;5.75;;;3.28;;
75061;SDS011;63641;46.526;24.612;2023-02-20T15:25:50;3.85;;;3.47;;
75061;SDS011;63641;46.526;24.612;2023-02-20T15:33:36;20.10;;;14.32;;
75061;SDS011;63641;46.526;24.612;2023-02-20T15:36:08;5.20;;;4.43;;
75061;SDS011;63641;46.526;24.612;2023-02-20T15:38:39;9.30;;;5.80;;
75061;SDS011;63641;46.526;24.612;2023-02-20T15:41:06;5.68;;;3.85;;
75061;SDS011;63641;46.526;24.612;2023-02-20T15:43:33;4.60;;;3.53;;
75061;SDS011;63641;46.526;24.612;2023-02-20T15:46:14;5.85;;;3.70;;
75061;SDS011;63641;46.526;24.612;2023-02-20T15:48:43;6.85;;;4.15;;
75061;SDS011;63641;46.526;24.612;2023-02-20T15:51:10;4.05;;;3.15;;
75061;SDS011;63641;46.526;24.612;2023-02-20T15:53:40;4.30;;;3.85;;
75061;SDS011;63641;46.526;24.612;2023-02-20T15:56:10;6.57;;;4.80;;
75061;SDS011;63641;46.526;24.612;2023-02-20T15:58:38;6.50;;;4.35;;
75061;SDS011;63641;46.526;24.612;2023-02-20T16:01:08;7.57;;;5.00;;
75061;SDS011;63641;46.526;24.612;2023-02-20T16:03:35;7.35;;;4.50;;
75061;SDS011;63641;46.526;24.612;2023-02-20T16:06:16;7.55;;;5.20;;
75061;SDS011;63641;46.526;24.612;2023-02-20T16:08:45;7.63;;;5.07;;
75061;SDS011;63641;46.526;24.612;2023-02-20T16:11:12;5.95;;;5.05;;
75061;SDS011;63641;46.526;24.612;2023-02-20T16:13:39;6.53;;;4.60;;
75061;SDS011;63641;46.526;24.612;2023-02-20T16:16:20;4.88;;;4.13;;
75061;SDS011;63641;46.526;24.612;2023-02-20T16:18:50;6.88;;;4.53;;
75061;SDS011;63641;46.526;24.612;2023-02-20T16:21:21;6.15;;;5.03;;
75061;SDS011;63641;46.526;24.612;2023-02-20T16:23:49;5.80;;;4.35;;
75061;SDS011;63641;46.526;24.612;2023-02-20T16:26:17;6.40;;;4.38;;
75061;SDS011;63641;46.526;24.612;2023-02-20T16:28:51;6.35;;;4.60;;
75061;SDS011;63641;46.526;24.612;2023-02-20T16:31:24;4.72;;;3.80;;
75061;SDS011;63641;46.526;24.612;2023-02-20T16:34:25;5.68;;;4.93;;
75061;SDS011;63641;46.526;24.612;2023-02-20T16:36:53;5.65;;;4.55;;
75061;SDS011;63641;46.526;24.612;2023-02-20T16:39:20;5.32;;;4.03;;
75061;SDS011;63641;46.526;24.612;2023-02-20T16:41:52;8.20;;;5.13;;
75061;SDS011;63641;46.526;24.612;2023-02-20T16:44:21;6.97;;;4.85;;
75061;SDS011;63641;46.526;24.612;2023-02-20T16:47:13;5.65;;;4.40;;
75061;SDS011;63641;46.526;24.612;2023-02-20T16:49:45;11.13;;;6.75;;
75061;SDS011;63641;46.526;24.612;2023-02-20T16:52:14;9.35;;;6.85;;
75061;SDS011;63641;46.526;24.612;2023-02-20T16:54:45;10.63;;;8.15;;
75061;SDS011;63641;46.526;24.612;2023-02-20T16:57:15;10.65;;;7.65;;
75061;SDS011;63641;46.526;24.612;2023-02-20T16:59:43;9.50;;;6.60;;
75061;SDS011;63641;46.526;24.612;2023-02-20T17:02:13;9.45;;;6.50;;
75061;SDS011;63641;46.526;24.612;2023-02-20T17:04:42;7.65;;;5.97;;
75061;SDS011;63641;46.526;24.612;2023-02-20T17:07:09;7.22;;;6.20;;
75061;SDS011;63641;46.526;24.612;2023-02-20T17:09:36;9.25;;;6.00;;
75061;SDS011;63641;46.526;24.612;2023-02-20T17:12:11;7.65;;;5.03;;
75061;SDS011;63641;46.526;24.612;2023-02-20T17:14:38;8.43;;;5.25;;